sensor_id;sensor_type;location;lat;lon;timestamp;P1;durP1;ratioP1;P2;durP2;ratioP2
18304;SDS011;9278;52.156;21.048;2022-12-18T00:00:06;50.27;;;21.07;;
18304;SDS011;9278;52.156;21.048;2022-12-18T00:02:44;53.67;;;20.77;;
18304;SDS011;9278;52.156;21.048;2022-12-18T00:05:12;40.73;;;16.30;;
18304;SDS011;9278;52.156;21.048;2022-12-18T00:07:40;50.33;;;19.87;;
18304;SDS011;9278;52.156;21.048;2022-12-18T00:10:09;53.63;;;18.97;;
18304;SDS011;9278;52.156;21.048;2022-12-18T00:12:40;46.33;;;19.67;;
18304;SDS011;9278;52.156;21.048;2022-12-18T00:15:09;44.10;;;20.03;;
18304;SDS011;9278;52.156;21.048;2022-12-18T00:17:37;47.67;;;18.30;;
18304;SDS011;9278;52.156;21.048;2022-12-18T00:20:07;42.07;;;16.93;;
18304;SDS011;9278;52.156;21.048;2022-12-18T00:22:36;50.13;;;18.73;;
18304;SDS011;9278;52.156;21.048;2022-12-18T00:25:05;46.00;;;17.40;;
18304;SDS011;9278;52.156;21.048;2022-12-18T00:27:33;48.27;;;17.50;;
18304;SDS011;9278;52.156;21.048;2022-12-18T00:30:02;48.07;;;19.53;;
18304;SDS011;9278;52.156;21.048;2022-12-18T00:32:30;50.63;;;21.00;;
18304;SDS011;9278;52.156;21.048;2022-12-18T00:35:01;45.13;;;16.33;;
18304;SDS011;9278;52.156;21.048;2022-12-18T00:37:31;46.33;;;18.60;;
18304;SDS011;9278;52.156;21.048;2022-12-18T00:40:01;44.40;;;17.47;;
18304;SDS011;9278;52.156;21.048;2022-12-18T00:42:29;50.17;;;21.27;;
18304;SDS011;9278;52.156;21.048;2022-12-18T00:45:15;46.67;;;19.17;;
18304;SDS011;9278;52.156;21.048;2022-12-18T00:47:45;48.70;;;16.90;;
18304;SDS011;9278;52.156;21.048;2022-12-18T00:50:13;47.37;;;18.20;;
18304;SDS011;9278;52.156;21.048;2022-12-18T00:52:42;44.17;;;16.60;;
18304;SDS011;9278;52.156;21.048;2022-12-18T00:55:11;47.83;;;20.47;;
18304;SDS011;9278;52.156;21.048;2022-12-18T00:57:39;45.27;;;19.50;;
18304;SDS011;9278;52.156;21.048;2022-12-18T01:00:09;48.40;;;17.77;;
18304;SDS011;9278;52.156;21.048;2022-12-18T01:02:39;47.70;;;18.17;;
18304;SDS011;9278;52.156;21.048;2022-12-18T01:05:08;43.53;;;17.07;;
18304;SDS011;9278;52.156;21.048;2022-12-18T01:07:38;51.23;;;19.70;;
18304;SDS011;9278;52.156;21.048;2022-12-18T01:10:10;50.93;;;20.17;;
18304;SDS011;9278;52.156;21.048;2022-12-18T01:12:40;46.27;;;19.77;;
18304;SDS011;9278;52.156;21.048;2022-12-18T01:15:09;49.23;;;17.87;;
18304;SDS011;9278;52.156;21.048;2022-12-18T01:17:39;52.27;;;20.67;;
18304;SDS011;9278;52.156;21.048;2022-12-18T01:20:07;56.63;;;18.83;;
18304;SDS011;9278;52.156;21.048;2022-12-18T01:22:37;48.87;;;19.70;;
18304;SDS011;9278;52.156;21.048;2022-12-18T01:25:06;52.03;;;22.13;;
18304;SDS011;9278;52.156;21.048;2022-12-18T01:27:36;52.10;;;20.30;;
18304;SDS011;9278;52.156;21.048;2022-12-18T01:30:05;42.90;;;18.30;;
18304;SDS011;9278;52.156;21.048;2022-12-18T01:32:34;52.80;;;21.67;;
18304;SDS011;9278;52.156;21.048;2022-12-18T01:35:02;38.97;;;16.33;;
18304;SDS011;9278;52.156;21.048;2022-12-18T01:37:31;40.27;;;16.70;;
18304;SDS011;9278;52.156;21.048;2022-12-18T01:39:59;46.77;;;18.87;;
18304;SDS011;9278;52.156;21.048;2022-12-18T01:42:28;43.03;;;17.47;;
18304;SDS011;9278;52.156;21.048;2022-12-18T01:45:01;46.30;;;18.57;;
18304;SDS011;9278;52.156;21.048;2022-12-18T01:47:33;46.10;;;17.10;;
18304;SDS011;9278;52.156;21.048;2022-12-18T01:50:07;48.50;;;16.93;;
18304;SDS011;9278;52.156;21.048;2022-12-18T01:52:38;49.47;;;17.13;;
18304;SDS011;9278;52.156;21.048;2022-12-18T01:55:08;43.20;;;17.23;;
18304;SDS011;9278;52.156;21.048;2022-12-18T01:57:39;47.13;;;15.80;;
18304;SDS011;9278;52.156;21.048;2022-12-18T02:00:09;43.60;;;17.57;;
18304;SDS011;9278;52.156;21.048;2022-12-18T02:02:41;43.57;;;15.57;;
18304;SDS011;9278;52.156;21.048;2022-12-18T02:05:12;51.83;;;19.17;;
18304;SDS011;9278;52.156;21.048;2022-12-18T02:07:46;48.70;;;15.47;;
18304;SDS011;9278;52.156;21.048;2022-12-18T02:10:27;41.80;;;14.77;;
18304;SDS011;9278;52.156;21.048;2022-12-18T02:13:02;38.47;;;13.87;;
18304;SDS011;9278;52.156;21.048;2022-12-18T02:15:41;47.90;;;18.37;;
18304;SDS011;9278;52.156;21.048;2022-12-18T02:18:17;42.93;;;14.47;;
18304;SDS011;9278;52.156;21.048;2022-12-18T02:20:49;51.90;;;21.60;;
18304;SDS011;9278;52.156;21.048;2022-12-18T02:23:29;41.13;;;14.07;;
18304;SDS011;9278;52.156;21.048;2022-12-18T02:26:12;49.43;;;20.80;;
18304;SDS011;9278;52.156;21.048;2022-12-18T02:28:45;47.63;;;17.13;;
18304;SDS011;9278;52.156;21.048;2022-12-18T02:31:18;53.20;;;20.87;;
18304;SDS011;9278;52.156;21.048;2022-12-18T02:33:50;49.03;;;16.70;;
18304;SDS011;9278;52.156;21.048;2022-12-18T02:36:19;45.00;;;17.93;;
18304;SDS011;9278;52.156;21.048;2022-12-18T02:38:49;55.47;;;18.20;;
18304;SDS011;9278;52.156;21.048;2022-12-18T02:41:21;51.07;;;16.90;;
18304;SDS011;9278;52.156;21.048;2022-12-18T02:43:53;45.00;;;17.93;;
18304;SDS011;9278;52.156;21.048;2022-12-18T02:46:29;45.60;;;14.97;;
18304;SDS011;9278;52.156;21.048;2022-12-18T02:49:08;46.83;;;16.07;;
18304;SDS011;9278;52.156;21.048;2022-12-18T02:51:49;50.13;;;18.30;;
18304;SDS011;9278;52.156;21.048;2022-12-18T02:54:23;52.33;;;19.33;;
18304;SDS011;9278;52.156;21.048;2022-12-18T02:57:04;52.83;;;22.23;;
18304;SDS011;9278;52.156;21.048;2022-12-18T02:59:39;46.03;;;16.97;;
18304;SDS011;9278;52.156;21.048;2022-12-18T03:02:23;45.27;;;17.73;;
18304;SDS011;9278;52.156;21.048;2022-12-18T03:04:56;46.50;;;17.87;;
18304;SDS011;9278;52.156;21.048;2022-12-18T03:07:33;48.50;;;16.13;;
18304;SDS011;9278;52.156;21.048;2022-12-18T03:10:08;55.80;;;19.73;;
18304;SDS011;9278;52.156;21.048;2022-12-18T03:12:45;37.13;;;14.73;;
18304;SDS011;9278;52.156;21.048;2022-12-18T03:15:17;46.60;;;18.20;;
18304;SDS011;9278;52.156;21.048;2022-12-18T03:17:57;52.73;;;17.93;;
18304;SDS011;9278;52.156;21.048;2022-12-18T03:20:31;46.03;;;18.20;;
18304;SDS011;9278;52.156;21.048;2022-12-18T03:23:03;47.83;;;17.90;;
18304;SDS011;9278;52.156;21.048;2022-12-18T03:25:34;53.20;;;19.10;;
18304;SDS011;9278;52.156;21.048;2022-12-18T03:28:09;51.57;;;21.50;;
18304;SDS011;9278;52.156;21.048;2022-12-18T03:30:41;45.30;;;17.03;;
18304;SDS011;9278;52.156;21.048;2022-12-18T03:33:12;52.60;;;17.17;;
18304;SDS011;9278;52.156;21.048;2022-12-18T03:35:48;49.23;;;16.63;;
18304;SDS011;9278;52.156;21.048;2022-12-18T03:38:17;50.33;;;20.43;;
18304;SDS011;9278;52.156;21.048;2022-12-18T03:40:52;49.60;;;17.07;;
18304;SDS011;9278;52.156;21.048;2022-12-18T03:43:33;47.80;;;16.93;;
18304;SDS011;9278;52.156;21.048;2022-12-18T03:46:11;44.47;;;15.93;;
18304;SDS011;9278;52.156;21.048;2022-12-18T03:48:51;49.23;;;18.20;;
18304;SDS011;9278;52.156;21.048;2022-12-18T03:51:37;47.30;;;17.17;;
18304;SDS011;9278;52.156;21.048;2022-12-18T03:54:10;45.20;;;15.77;;
18304;SDS011;9278;52.156;21.048;2022-12-18T03:56:48;48.97;;;16.53;;
18304;SDS011;9278;52.156;21.048;2022-12-18T03:59:22;57.00;;;22.00;;
18304;SDS011;9278;52.156;21.048;2022-12-18T04:01:54;49.73;;;17.43;;
18304;SDS011;9278;52.156;21.048;2022-12-18T04:04:25;48.70;;;18.13;;
18304;SDS011;9278;52.156;21.048;2022-12-18T04:06:58;45.63;;;17.20;;
18304;SDS011;9278;52.156;21.048;2022-12-18T04:09:28;51.97;;;17.77;;
18304;SDS011;9278;52.156;21.048;2022-12-18T04:11:59;46.67;;;16.47;;
18304;SDS011;9278;52.156;21.048;2022-12-18T04:14:29;51.60;;;19.37;;
18304;SDS011;9278;52.156;21.048;2022-12-18T04:17:04;50.17;;;17.57;;
18304;SDS011;9278;52.156;21.048;2022-12-18T04:19:32;52.23;;;17.70;;
18304;SDS011;9278;52.156;21.048;2022-12-18T04:22:02;46.87;;;18.43;;
18304;SDS011;9278;52.156;21.048;2022-12-18T04:24:36;54.93;;;21.37;;
18304;SDS011;9278;52.156;21.048;2022-12-18T04:27:15;47.77;;;15.40;;
18304;SDS011;9278;52.156;21.048;2022-12-18T04:29:49;44.50;;;15.17;;
18304;SDS011;9278;52.156;21.048;2022-12-18T04:32:18;46.70;;;15.87;;
18304;SDS011;9278;52.156;21.048;2022-12-18T04:34:48;45.77;;;15.60;;
18304;SDS011;9278;52.156;21.048;2022-12-18T04:37:17;44.80;;;16.30;;
18304;SDS011;9278;52.156;21.048;2022-12-18T04:39:47;50.60;;;16.43;;
18304;SDS011;9278;52.156;21.048;2022-12-18T04:42:23;50.07;;;16.57;;
18304;SDS011;9278;52.156;21.048;2022-12-18T04:44:52;47.00;;;18.20;;
18304;SDS011;9278;52.156;21.048;2022-12-18T04:47:21;46.97;;;16.00;;
18304;SDS011;9278;52.156;21.048;2022-12-18T04:49:49;40.90;;;16.23;;
18304;SDS011;9278;52.156;21.048;2022-12-18T04:52:17;49.37;;;19.20;;
18304;SDS011;9278;52.156;21.048;2022-12-18T04:54:45;47.27;;;15.27;;
18304;SDS011;9278;52.156;21.048;2022-12-18T04:57:13;44.50;;;15.60;;
18304;SDS011;9278;52.156;21.048;2022-12-18T04:59:41;48.47;;;19.20;;
18304;SDS011;9278;52.156;21.048;2022-12-18T05:02:11;46.37;;;18.70;;
18304;SDS011;9278;52.156;21.048;2022-12-18T05:04:39;45.00;;;14.70;;
18304;SDS011;9278;52.156;21.048;2022-12-18T05:07:07;52.40;;;16.53;;
18304;SDS011;9278;52.156;21.048;2022-12-18T05:09:35;52.93;;;16.77;;
18304;SDS011;9278;52.156;21.048;2022-12-18T05:12:04;52.90;;;18.63;;
18304;SDS011;9278;52.156;21.048;2022-12-18T05:14:32;50.83;;;16.50;;
18304;SDS011;9278;52.156;21.048;2022-12-18T05:17:00;49.50;;;16.57;;
18304;SDS011;9278;52.156;21.048;2022-12-18T05:19:30;49.90;;;16.27;;
18304;SDS011;9278;52.156;21.048;2022-12-18T05:21:58;46.73;;;17.43;;
18304;SDS011;9278;52.156;21.048;2022-12-18T05:24:27;43.53;;;14.17;;
18304;SDS011;9278;52.156;21.048;2022-12-18T05:26:55;46.33;;;16.60;;
18304;SDS011;9278;52.156;21.048;2022-12-18T05:29:24;44.53;;;16.23;;
18304;SDS011;9278;52.156;21.048;2022-12-18T05:31:52;48.27;;;17.67;;
18304;SDS011;9278;52.156;21.048;2022-12-18T05:34:20;44.87;;;16.17;;
18304;SDS011;9278;52.156;21.048;2022-12-18T05:36:50;52.57;;;16.87;;
18304;SDS011;9278;52.156;21.048;2022-12-18T05:39:18;53.43;;;18.43;;
18304;SDS011;9278;52.156;21.048;2022-12-18T05:41:46;40.60;;;14.87;;
18304;SDS011;9278;52.156;21.048;2022-12-18T05:44:14;48.83;;;17.83;;
18304;SDS011;9278;52.156;21.048;2022-12-18T05:46:42;50.07;;;15.47;;
18304;SDS011;9278;52.156;21.048;2022-12-18T05:49:10;54.40;;;18.87;;
18304;SDS011;9278;52.156;21.048;2022-12-18T05:51:38;53.57;;;17.97;;
18304;SDS011;9278;52.156;21.048;2022-12-18T05:54:09;57.67;;;19.67;;
18304;SDS011;9278;52.156;21.048;2022-12-18T05:56:37;58.70;;;17.00;;
18304;SDS011;9278;52.156;21.048;2022-12-18T05:59:12;76.17;;;24.97;;
18304;SDS011;9278;52.156;21.048;2022-12-18T06:01:40;63.97;;;19.00;;
18304;SDS011;9278;52.156;21.048;2022-12-18T06:04:09;55.07;;;18.17;;
18304;SDS011;9278;52.156;21.048;2022-12-18T06:06:37;53.13;;;18.80;;
18304;SDS011;9278;52.156;21.048;2022-12-18T06:09:06;47.27;;;14.17;;
18304;SDS011;9278;52.156;21.048;2022-12-18T06:11:37;58.67;;;22.87;;
18304;SDS011;9278;52.156;21.048;2022-12-18T06:14:05;66.40;;;22.93;;
18304;SDS011;9278;52.156;21.048;2022-12-18T06:16:34;65.10;;;20.67;;
18304;SDS011;9278;52.156;21.048;2022-12-18T06:19:03;55.80;;;18.83;;
18304;SDS011;9278;52.156;21.048;2022-12-18T06:21:32;58.97;;;17.63;;
18304;SDS011;9278;52.156;21.048;2022-12-18T06:24:01;61.80;;;18.97;;
18304;SDS011;9278;52.156;21.048;2022-12-18T06:26:29;66.70;;;19.30;;
18304;SDS011;9278;52.156;21.048;2022-12-18T06:28:59;62.97;;;19.60;;
18304;SDS011;9278;52.156;21.048;2022-12-18T06:31:27;61.17;;;18.53;;
18304;SDS011;9278;52.156;21.048;2022-12-18T06:33:56;63.80;;;19.43;;
18304;SDS011;9278;52.156;21.048;2022-12-18T06:36:24;69.93;;;21.47;;
18304;SDS011;9278;52.156;21.048;2022-12-18T06:38:52;65.80;;;21.37;;
18304;SDS011;9278;52.156;21.048;2022-12-18T06:41:20;70.37;;;19.63;;
18304;SDS011;9278;52.156;21.048;2022-12-18T06:43:49;64.87;;;20.20;;
18304;SDS011;9278;52.156;21.048;2022-12-18T06:46:25;68.57;;;24.80;;
18304;SDS011;9278;52.156;21.048;2022-12-18T06:48:53;58.60;;;19.47;;
18304;SDS011;9278;52.156;21.048;2022-12-18T06:51:21;62.83;;;22.20;;
18304;SDS011;9278;52.156;21.048;2022-12-18T06:53:50;62.13;;;19.67;;
18304;SDS011;9278;52.156;21.048;2022-12-18T06:56:19;69.10;;;21.33;;
18304;SDS011;9278;52.156;21.048;2022-12-18T06:58:47;62.83;;;18.47;;
18304;SDS011;9278;52.156;21.048;2022-12-18T07:01:15;52.97;;;18.30;;
18304;SDS011;9278;52.156;21.048;2022-12-18T07:03:45;58.03;;;20.73;;
18304;SDS011;9278;52.156;21.048;2022-12-18T07:06:13;57.03;;;18.17;;
18304;SDS011;9278;52.156;21.048;2022-12-18T07:08:43;59.67;;;19.57;;
18304;SDS011;9278;52.156;21.048;2022-12-18T07:11:11;61.70;;;20.33;;
18304;SDS011;9278;52.156;21.048;2022-12-18T07:13:40;57.57;;;20.17;;
18304;SDS011;9278;52.156;21.048;2022-12-18T07:16:09;59.17;;;18.63;;
18304;SDS011;9278;52.156;21.048;2022-12-18T07:18:50;67.47;;;20.77;;
18304;SDS011;9278;52.156;21.048;2022-12-18T07:21:19;52.90;;;16.77;;
18304;SDS011;9278;52.156;21.048;2022-12-18T07:23:47;57.87;;;19.97;;
18304;SDS011;9278;52.156;21.048;2022-12-18T07:26:16;62.83;;;19.10;;
18304;SDS011;9278;52.156;21.048;2022-12-18T07:28:46;60.50;;;19.00;;
18304;SDS011;9278;52.156;21.048;2022-12-18T07:31:15;52.40;;;19.13;;
18304;SDS011;9278;52.156;21.048;2022-12-18T07:33:47;63.50;;;20.57;;
18304;SDS011;9278;52.156;21.048;2022-12-18T07:36:17;61.70;;;19.83;;
18304;SDS011;9278;52.156;21.048;2022-12-18T07:38:46;62.17;;;18.17;;
18304;SDS011;9278;52.156;21.048;2022-12-18T07:41:15;60.13;;;19.20;;
18304;SDS011;9278;52.156;21.048;2022-12-18T07:43:45;59.00;;;19.90;;
18304;SDS011;9278;52.156;21.048;2022-12-18T07:46:14;60.87;;;18.80;;
18304;SDS011;9278;52.156;21.048;2022-12-18T07:48:43;59.63;;;20.57;;
18304;SDS011;9278;52.156;21.048;2022-12-18T07:51:17;63.47;;;20.43;;
18304;SDS011;9278;52.156;21.048;2022-12-18T07:53:46;59.33;;;20.63;;
18304;SDS011;9278;52.156;21.048;2022-12-18T07:56:18;65.83;;;21.63;;
18304;SDS011;9278;52.156;21.048;2022-12-18T07:58:56;67.93;;;21.50;;
18304;SDS011;9278;52.156;21.048;2022-12-18T08:01:24;62.57;;;19.57;;
18304;SDS011;9278;52.156;21.048;2022-12-18T08:03:53;62.07;;;22.00;;
18304;SDS011;9278;52.156;21.048;2022-12-18T08:06:22;68.40;;;20.73;;
18304;SDS011;9278;52.156;21.048;2022-12-18T08:08:51;61.87;;;20.47;;
18304;SDS011;9278;52.156;21.048;2022-12-18T08:11:20;56.80;;;18.63;;
18304;SDS011;9278;52.156;21.048;2022-12-18T08:13:49;64.57;;;21.77;;
18304;SDS011;9278;52.156;21.048;2022-12-18T08:16:17;58.73;;;18.93;;
18304;SDS011;9278;52.156;21.048;2022-12-18T08:18:46;65.03;;;21.73;;
18304;SDS011;9278;52.156;21.048;2022-12-18T08:21:16;65.80;;;21.53;;
18304;SDS011;9278;52.156;21.048;2022-12-18T08:23:49;63.83;;;22.50;;
18304;SDS011;9278;52.156;21.048;2022-12-18T08:26:18;60.00;;;20.03;;
18304;SDS011;9278;52.156;21.048;2022-12-18T08:28:47;58.73;;;20.17;;
18304;SDS011;9278;52.156;21.048;2022-12-18T08:31:16;52.40;;;17.77;;
18304;SDS011;9278;52.156;21.048;2022-12-18T08:33:45;61.03;;;20.00;;
18304;SDS011;9278;52.156;21.048;2022-12-18T08:36:16;60.30;;;18.50;;
18304;SDS011;9278;52.156;21.048;2022-12-18T08:38:44;61.83;;;18.80;;
18304;SDS011;9278;52.156;21.048;2022-12-18T08:41:15;61.50;;;18.67;;
18304;SDS011;9278;52.156;21.048;2022-12-18T08:43:44;57.70;;;19.23;;
18304;SDS011;9278;52.156;21.048;2022-12-18T08:46:34;53.20;;;19.07;;
18304;SDS011;9278;52.156;21.048;2022-12-18T08:49:05;58.20;;;18.73;;
18304;SDS011;9278;52.156;21.048;2022-12-18T08:51:34;59.63;;;19.27;;
18304;SDS011;9278;52.156;21.048;2022-12-18T08:54:03;54.17;;;18.20;;
18304;SDS011;9278;52.156;21.048;2022-12-18T08:56:33;58.73;;;19.37;;
18304;SDS011;9278;52.156;21.048;2022-12-18T08:59:01;63.03;;;20.37;;
18304;SDS011;9278;52.156;21.048;2022-12-18T09:01:30;59.77;;;19.50;;
18304;SDS011;9278;52.156;21.048;2022-12-18T09:04:00;54.07;;;20.60;;
18304;SDS011;9278;52.156;21.048;2022-12-18T09:06:29;55.03;;;18.80;;
18304;SDS011;9278;52.156;21.048;2022-12-18T09:08:58;60.83;;;20.00;;
18304;SDS011;9278;52.156;21.048;2022-12-18T09:11:27;60.13;;;20.50;;
18304;SDS011;9278;52.156;21.048;2022-12-18T09:13:57;50.53;;;19.20;;
18304;SDS011;9278;52.156;21.048;2022-12-18T09:16:27;57.70;;;19.00;;
18304;SDS011;9278;52.156;21.048;2022-12-18T09:18:58;61.67;;;21.07;;
18304;SDS011;9278;52.156;21.048;2022-12-18T09:21:27;59.43;;;19.47;;
18304;SDS011;9278;52.156;21.048;2022-12-18T09:24:02;56.20;;;20.43;;
18304;SDS011;9278;52.156;21.048;2022-12-18T09:26:34;59.60;;;20.40;;
18304;SDS011;9278;52.156;21.048;2022-12-18T09:29:05;57.07;;;20.77;;
18304;SDS011;9278;52.156;21.048;2022-12-18T09:31:35;59.80;;;20.83;;
18304;SDS011;9278;52.156;21.048;2022-12-18T09:34:05;59.77;;;20.57;;
18304;SDS011;9278;52.156;21.048;2022-12-18T09:36:34;63.97;;;22.10;;
18304;SDS011;9278;52.156;21.048;2022-12-18T09:39:02;56.07;;;21.13;;
18304;SDS011;9278;52.156;21.048;2022-12-18T09:41:41;67.93;;;22.93;;
18304;SDS011;9278;52.156;21.048;2022-12-18T09:44:25;60.87;;;21.43;;
18304;SDS011;9278;52.156;21.048;2022-12-18T09:46:59;56.97;;;20.73;;
18304;SDS011;9278;52.156;21.048;2022-12-18T09:49:34;61.17;;;21.83;;
18304;SDS011;9278;52.156;21.048;2022-12-18T09:52:08;59.03;;;21.67;;
18304;SDS011;9278;52.156;21.048;2022-12-18T09:54:41;64.50;;;22.57;;
18304;SDS011;9278;52.156;21.048;2022-12-18T09:57:13;63.20;;;22.50;;
18304;SDS011;9278;52.156;21.048;2022-12-18T09:59:46;70.00;;;22.83;;
18304;SDS011;9278;52.156;21.048;2022-12-18T10:02:20;66.10;;;23.40;;
18304;SDS011;9278;52.156;21.048;2022-12-18T10:04:53;63.70;;;23.13;;
18304;SDS011;9278;52.156;21.048;2022-12-18T10:07:31;71.27;;;25.57;;
18304;SDS011;9278;52.156;21.048;2022-12-18T10:10:10;69.13;;;24.67;;
18304;SDS011;9278;52.156;21.048;2022-12-18T10:12:46;65.87;;;23.73;;
18304;SDS011;9278;52.156;21.048;2022-12-18T10:15:32;67.07;;;24.17;;
18304;SDS011;9278;52.156;21.048;2022-12-18T10:18:12;78.67;;;26.80;;
18304;SDS011;9278;52.156;21.048;2022-12-18T10:20:49;73.87;;;25.83;;
18304;SDS011;9278;52.156;21.048;2022-12-18T10:23:21;68.87;;;24.33;;
18304;SDS011;9278;52.156;21.048;2022-12-18T10:25:55;76.87;;;26.17;;
18304;SDS011;9278;52.156;21.048;2022-12-18T10:28:29;77.40;;;26.43;;
18304;SDS011;9278;52.156;21.048;2022-12-18T10:31:01;78.53;;;28.40;;
18304;SDS011;9278;52.156;21.048;2022-12-18T10:33:30;85.00;;;29.63;;
18304;SDS011;9278;52.156;21.048;2022-12-18T10:35:59;86.57;;;32.27;;
18304;SDS011;9278;52.156;21.048;2022-12-18T10:38:30;81.77;;;27.50;;
18304;SDS011;9278;52.156;21.048;2022-12-18T10:41:00;79.07;;;27.37;;
18304;SDS011;9278;52.156;21.048;2022-12-18T10:43:30;81.47;;;27.83;;
18304;SDS011;9278;52.156;21.048;2022-12-18T10:46:01;87.17;;;28.73;;
18304;SDS011;9278;52.156;21.048;2022-12-18T10:48:47;85.43;;;27.40;;
18304;SDS011;9278;52.156;21.048;2022-12-18T10:51:19;86.23;;;28.87;;
